WXM80 ListenWXM80 Stop

You find our weather info also at:

UK Metoffice

WeatherCloud

Weather Underground

Northeastern Weather Network

AWEKAS

Citizen Weather Observer Program (CWOP)

HAMweather, WeatherForYou, PWS Weather


Weather Underground History page Text

Daily Summary for November 1, 2016 Units:  English    Metric   Both
« Previous Day
Next Day »
Daily Weekly Monthly Yearly Custom
  High: Low: Average:
Temperature: 59.7 °F 40.2 °F 49.8 °F
Dew Point: 50.4 °F 37.2 °F 43.7 °F
Humidity: 94 % 62 % 80 %
Wind Speed: 6.4 mph 0.0 mph 1.4 mph
Wind Gust: 11.5 mph - -
Wind:- - ESE
Pressure: 30.36 in 30.27 in -
Precipitation: 0.00 in    
Historical Graphs
 
 
Tabular Data for November 1, 2016
Time Temperature Dew Point Pressure Wind Wind Speed Wind Gust Humidity Rainfall Rate (Hourly)
00:00 46.8 °F 39.6 °F 30.27 in NNE 1.0 mph 3.5 mph 76 % 0.00 in
00:05 46.7 °F 39.5 °F 30.27 in NNE 1.0 mph 5.0 mph 76 % 0.00 in
00:10 46.6 °F 39.4 °F 30.27 in NE 2.0 mph 5.0 mph 76 % 0.00 in
00:15 46.5 °F 39.3 °F 30.27 in NNE 2.2 mph 3.5 mph 76 % 0.00 in
00:20 46.4 °F 39.6 °F 30.28 in NNE 1.9 mph 4.6 mph 77 % 0.00 in
00:26 46.3 °F 39.5 °F 30.28 in NE 2.0 mph 3.5 mph 77 % 0.00 in
00:31 46.2 °F 39.4 °F 30.28 in North 1.4 mph 4.6 mph 77 % 0.00 in
00:36 46.1 °F 39.6 °F 30.28 in ENE 1.4 mph 4.0 mph 78 % 0.00 in
00:41 46.0 °F 39.5 °F 30.28 in NNE 3.1 mph 5.0 mph 78 % 0.00 in
00:46 45.9 °F 39.4 °F 30.28 in ENE 2.6 mph 7.0 mph 78 % 0.00 in
00:51 45.9 °F 39.4 °F 30.28 in ENE 3.7 mph 6.0 mph 78 % 0.00 in
00:56 45.9 °F 39.1 °F 30.29 in ENE 4.0 mph 6.0 mph 77 % 0.00 in
01:01 46.0 °F 38.9 °F 30.29 in NNE 0.9 mph 3.5 mph 76 % 0.00 in
01:06 46.0 °F 38.9 °F 30.28 in ENE 3.3 mph 4.0 mph 76 % 0.00 in
01:11 45.9 °F 38.8 °F 30.28 in ENE 3.9 mph 6.9 mph 76 % 0.00 in
01:16 45.9 °F 38.8 °F 30.29 in NE 2.6 mph 8.1 mph 76 % 0.00 in
01:21 45.9 °F 38.8 °F 30.28 in NE 2.3 mph 3.5 mph 76 % 0.00 in
01:26 45.9 °F 39.1 °F 30.29 in NE 1.9 mph 4.6 mph 77 % 0.00 in
01:32 45.8 °F 39.0 °F 30.28 in NE 2.7 mph 4.6 mph 77 % 0.00 in
01:37 45.8 °F 39.3 °F 30.29 in NNE 1.2 mph 4.6 mph 78 % 0.00 in
01:42 45.7 °F 39.2 °F 30.29 in ENE 2.4 mph 3.5 mph 78 % 0.00 in
01:47 45.6 °F 39.1 °F 30.30 in East 2.9 mph 3.5 mph 78 % 0.00 in
01:52 45.6 °F 39.5 °F 30.29 in ENE 2.7 mph 4.0 mph 79 % 0.00 in
01:57 45.5 °F 39.4 °F 30.29 in ENE 2.5 mph 3.5 mph 79 % 0.00 in
02:02 45.4 °F 39.3 °F 30.30 in ENE 3.0 mph 4.0 mph 79 % 0.00 in
02:07 45.4 °F 39.6 °F 30.30 in ENE 1.9 mph 3.5 mph 80 % 0.00 in
02:13 45.3 °F 39.5 °F 30.30 in NE 1.7 mph 6.9 mph 80 % 0.00 in
02:18 45.2 °F 39.4 °F 30.30 in ENE 1.4 mph 4.6 mph 80 % 0.00 in
02:23 45.2 °F 39.7 °F 30.30 in NE 2.5 mph 6.9 mph 81 % 0.00 in
02:28 45.2 °F 39.7 °F 30.30 in NE 2.0 mph 3.5 mph 81 % 0.00 in
02:35 45.2 °F 40.0 °F 30.30 in ENE 2.6 mph 5.0 mph 82 % 0.00 in
02:40 45.1 °F 39.9 °F 30.30 in NE 3.4 mph 6.0 mph 82 % 0.00 in
02:57 45.3 °F 40.4 °F 30.31 in ENE 3.6 mph 8.1 mph 83 % 0.00 in
03:03 45.3 °F 40.4 °F 30.31 in ENE 3.8 mph 8.1 mph 83 % 0.00 in
03:17 45.3 °F 40.4 °F 30.30 in ENE 3.0 mph 7.0 mph 83 % 0.00 in
03:25 45.3 °F 40.7 °F 30.31 in ENE 3.6 mph 6.0 mph 84 % 0.00 in
03:40 45.3 °F 40.4 °F 30.31 in NE 3.8 mph 8.1 mph 83 % 0.00 in
04:11 45.5 °F 41.3 °F 30.30 in ENE 4.0 mph 7.0 mph 85 % 0.00 in
04:16 45.6 °F 41.4 °F 30.30 in ENE 5.8 mph 7.0 mph 85 % 0.00 in
04:21 45.7 °F 41.8 °F 30.31 in ENE 4.0 mph 4.6 mph 86 % 0.00 in
04:26 45.8 °F 41.5 °F 30.30 in NE 4.0 mph 8.1 mph 85 % 0.00 in
04:31 45.8 °F 41.5 °F 30.31 in ENE 1.3 mph 3.0 mph 85 % 0.00 in
04:36 45.7 °F 41.4 °F 30.31 in Calm   1.2 mph 85 % 0.00 in
04:41 45.6 °F 41.0 °F 30.32 in ENE 2.2 mph 3.5 mph 84 % 0.00 in
04:47 45.5 °F 41.3 °F 30.32 in ENE 0.8 mph 3.5 mph 85 % 0.00 in
04:52 45.5 °F 41.3 °F 30.32 in ENE 0.5 mph 1.2 mph 85 % 0.00 in
04:57 45.4 °F 41.5 °F 30.32 in ESE 0.7 mph 2.3 mph 86 % 0.00 in
05:02 45.3 °F 41.1 °F 30.32 in ESE 0.1 mph 1.2 mph 85 % 0.00 in
05:07 45.2 °F 41.0 °F 30.32 in ESE 1.5 mph 3.5 mph 85 % 0.00 in
05:12 45.1 °F 40.9 °F 30.33 in ESE 0.2 mph 1.2 mph 85 % 0.00 in
05:17 45.0 °F 40.5 °F 30.33 in ESE 0.3 mph 1.2 mph 84 % 0.00 in
05:22 44.8 °F 40.3 °F 30.33 in Calm     84 % 0.00 in
05:27 44.6 °F 39.8 °F 30.33 in Calm   1.2 mph 83 % 0.00 in
05:32 44.3 °F 39.8 °F 30.33 in ESE 0.2 mph 1.0 mph 84 % 0.00 in
05:37 44.1 °F 39.6 °F 30.33 in Calm     84 % 0.00 in
05:47 43.6 °F 39.1 °F 30.33 in Calm     84 % 0.00 in
05:52 43.4 °F 38.9 °F 30.33 in ESE 0.1 mph 2.3 mph 84 % 0.00 in
05:57 43.2 °F 39.0 °F 30.33 in Calm     85 % 0.00 in
06:09 42.7 °F 38.5 °F 30.33 in ESE 0.1 mph 2.3 mph 85 % 0.00 in
06:16 42.3 °F 38.1 °F 30.32 in ESE 0.3 mph 1.2 mph 85 % 0.00 in
06:21 42.1 °F 37.9 °F 30.32 in ESE 0.9 mph 2.3 mph 85 % 0.00 in
06:26 41.8 °F 37.9 °F 30.32 in ESE 1.2 mph 2.3 mph 86 % 0.00 in
06:32 41.6 °F 37.7 °F 30.32 in SSE 1.4 mph 2.3 mph 86 % 0.00 in
06:37 41.5 °F 37.6 °F 30.32 in SSE 1.0 mph 3.5 mph 86 % 0.00 in
06:42 41.3 °F 37.7 °F 30.32 in SSE 1.2 mph 3.0 mph 87 % 0.00 in
06:47 41.1 °F 37.5 °F 30.32 in SSE 0.5 mph 2.3 mph 87 % 0.00 in
06:52 41.1 °F 37.8 °F 30.32 in Calm     88 % 0.00 in
06:57 41.0 °F 37.7 °F 30.32 in Calm     88 % 0.00 in
07:02 40.9 °F 37.6 °F 30.32 in Calm   1.2 mph 88 % 0.00 in
07:07 40.8 °F 37.5 °F 30.32 in Calm     88 % 0.00 in
07:12 40.7 °F 37.4 °F 30.32 in Calm     88 % 0.00 in
07:17 40.6 °F 37.3 °F 30.33 in SSE 0.7 mph 2.3 mph 88 % 0.00 in
07:22 40.5 °F 37.5 °F 30.32 in Calm     89 % 0.00 in
07:28 40.5 °F 37.5 °F 30.32 in SSE 0.3 mph 1.2 mph 89 % 0.00 in
07:33 40.4 °F 37.4 °F 30.33 in SSE 0.3 mph 1.2 mph 89 % 0.00 in
07:38 40.3 °F 37.3 °F 30.33 in SE 1.1 mph 3.5 mph 89 % 0.00 in
07:43 40.2 °F 37.2 °F 30.33 in SE 0.3 mph 1.0 mph 89 % 0.00 in
07:48 40.2 °F 37.5 °F 30.33 in SE 0.8 mph 2.3 mph 90 % 0.00 in
07:53 40.3 °F 37.9 °F 30.33 in SE 1.6 mph 3.5 mph 91 % 0.00 in
07:58 40.3 °F 37.9 °F 30.34 in SE 1.1 mph 3.5 mph 91 % 0.00 in
08:03 40.5 °F 38.4 °F 30.34 in SE 1.2 mph 2.3 mph 92 % 0.00 in
08:08 40.6 °F 38.5 °F 30.34 in SE 0.6 mph 2.3 mph 92 % 0.00 in
08:13 40.8 °F 38.9 °F 30.34 in SE 0.5 mph 3.5 mph 93 % 0.00 in
08:24 41.1 °F 39.2 °F 30.35 in Calm   2.3 mph 93 % 0.00 in
08:29 41.2 °F 39.3 °F 30.35 in SE 0.3 mph 2.3 mph 93 % 0.00 in
08:34 41.4 °F 39.5 °F 30.35 in Calm     93 % 0.00 in
08:39 41.5 °F 39.6 °F 30.35 in Calm     93 % 0.00 in
08:44 41.7 °F 39.8 °F 30.35 in Calm     93 % 0.00 in
08:49 42.0 °F 40.4 °F 30.35 in Calm   1.2 mph 94 % 0.00 in
08:54 42.2 °F 40.6 °F 30.35 in Calm     94 % 0.00 in
08:59 42.4 °F 40.5 °F 30.36 in Calm   1.2 mph 93 % 0.00 in
09:04 42.6 °F 40.7 °F 30.35 in SE 0.1 mph 1.2 mph 93 % 0.00 in
09:09 42.8 °F 40.9 °F 30.35 in SE 2.9 mph 3.0 mph 93 % 0.00 in
09:14 43.0 °F 41.1 °F 30.35 in SE 1.2 mph 3.5 mph 93 % 0.00 in
09:20 43.3 °F 41.4 °F 30.35 in SE 1.0 mph 3.5 mph 93 % 0.00 in
09:25 43.7 °F 41.8 °F 30.36 in SE 0.1 mph 1.2 mph 93 % 0.00 in
09:30 44.3 °F 42.4 °F 30.36 in South 0.8 mph 2.0 mph 93 % 0.00 in
09:35 45.1 °F 42.9 °F 30.36 in Calm   1.2 mph 92 % 0.00 in
09:40 46.3 °F 44.1 °F 30.36 in SSE 0.7 mph 1.2 mph 92 % 0.00 in
09:45 47.8 °F 45.0 °F 30.36 in Calm     90 % 0.00 in
09:50 49.2 °F 44.9 °F 30.36 in ENE 2.2 mph 5.0 mph 85 % 0.00 in
09:55 50.1 °F 44.5 °F 30.36 in ENE 2.0 mph 4.6 mph 81 % 0.00 in
10:00 50.7 °F 44.8 °F 30.36 in ENE 2.5 mph 4.0 mph 80 % 0.00 in
10:06 50.9 °F 43.9 °F 30.36 in ENE 2.2 mph 3.5 mph 77 % 0.00 in
10:11 50.9 °F 43.3 °F 30.36 in ENE 2.7 mph 6.9 mph 75 % 0.00 in
10:16 51.0 °F 43.4 °F 30.36 in ENE 3.6 mph 5.8 mph 75 % 0.00 in
10:21 51.3 °F 43.3 °F 30.36 in NE 4.0 mph 5.8 mph 74 % 0.00 in
10:26 51.8 °F 43.8 °F 30.36 in ENE 3.6 mph 4.6 mph 74 % 0.00 in
10:31 52.2 °F 44.2 °F 30.36 in NE 1.7 mph 3.5 mph 74 % 0.00 in
10:36 52.5 °F 43.4 °F 30.36 in ENE 3.6 mph 6.9 mph 71 % 0.00 in
10:41 52.6 °F 43.1 °F 30.36 in ENE 2.5 mph 4.0 mph 70 % 0.00 in
10:46 52.9 °F 44.1 °F 30.36 in ENE 2.3 mph 4.6 mph 72 % 0.00 in
10:51 53.2 °F 43.3 °F 30.36 in NE 3.4 mph 6.9 mph 69 % 0.00 in
10:56 53.6 °F 44.4 °F 30.36 in NE 1.2 mph 2.3 mph 71 % 0.00 in
11:01 54.5 °F 45.3 °F 30.36 in ENE 1.4 mph 3.5 mph 71 % 0.00 in
11:07 55.0 °F 45.0 °F 30.36 in NE 4.2 mph 6.9 mph 69 % 0.00 in
11:12 55.5 °F 45.5 °F 30.36 in NE 4.0 mph 7.0 mph 69 % 0.00 in
11:17 55.9 °F 45.9 °F 30.36 in ENE 2.7 mph 6.0 mph 69 % 0.00 in
11:22 56.2 °F 45.8 °F 30.36 in NE 2.4 mph 6.0 mph 68 % 0.00 in
11:27 56.2 °F 45.4 °F 30.36 in East 3.8 mph 8.1 mph 67 % 0.00 in
11:32 56.2 °F 45.8 °F 30.36 in NE 5.2 mph 8.1 mph 68 % 0.00 in
11:37 56.3 °F 46.6 °F 30.36 in ENE 3.7 mph 8.1 mph 70 % 0.00 in
11:42 55.9 °F 46.3 °F 30.36 in ENE 6.4 mph 9.2 mph 70 % 0.00 in
11:47 55.1 °F 46.6 °F 30.36 in ENE 5.1 mph 9.2 mph 73 % 0.00 in
11:52 54.4 °F 46.6 °F 30.36 in ENE 4.4 mph 9.2 mph 75 % 0.00 in
11:57 54.1 °F 47.0 °F 30.35 in ENE 5.0 mph 8.1 mph 77 % 0.00 in
12:03 53.6 °F 46.6 °F 30.35 in NE 6.4 mph 10.4 mph 77 % 0.00 in
12:08 53.2 °F 47.2 °F 30.36 in ENE 5.1 mph 10.4 mph 80 % 0.00 in
12:13 52.9 °F 47.2 °F 30.35 in ENE 3.5 mph 8.1 mph 81 % 0.00 in
12:18 52.9 °F 47.6 °F 30.35 in ENE 6.1 mph 9.2 mph 82 % 0.00 in
12:23 52.7 °F 47.4 °F 30.35 in ENE 5.0 mph 8.1 mph 82 % 0.00 in
12:28 52.7 °F 47.7 °F 30.34 in ENE 4.8 mph 9.2 mph 83 % 0.00 in
12:33 52.7 °F 47.4 °F 30.34 in East 3.7 mph 6.9 mph 82 % 0.00 in
12:38 52.9 °F 47.9 °F 30.34 in ENE 5.8 mph 11.5 mph 83 % 0.00 in
12:43 53.0 °F 48.0 °F 30.34 in ENE 4.2 mph 5.8 mph 83 % 0.00 in
12:48 53.3 °F 48.6 °F 30.34 in ENE 4.0 mph 8.1 mph 84 % 0.00 in
12:54 54.0 °F 49.3 °F 30.34 in ENE 1.4 mph 3.5 mph 84 % 0.00 in
12:59 54.3 °F 48.6 °F 30.33 in ENE 4.6 mph 7.0 mph 81 % 0.00 in
13:04 54.5 °F 49.1 °F 30.34 in ENE 3.8 mph 7.0 mph 82 % 0.00 in
13:09 54.6 °F 48.9 °F 30.33 in ENE 2.6 mph 6.9 mph 81 % 0.00 in
13:14 54.7 °F 49.0 °F 30.33 in ENE 5.3 mph 8.1 mph 81 % 0.00 in
13:19 54.7 °F 49.0 °F 30.32 in NE 3.4 mph 8.1 mph 81 % 0.00 in
13:24 54.6 °F 48.9 °F 30.32 in ENE 5.3 mph 8.1 mph 81 % 0.00 in
13:29 54.5 °F 49.1 °F 30.32 in ENE 5.0 mph 10.4 mph 82 % 0.00 in
13:34 54.5 °F 49.1 °F 30.32 in East 5.8 mph 8.1 mph 82 % 0.00 in
13:39 54.7 °F 49.6 °F 30.32 in East 3.9 mph 7.0 mph 83 % 0.00 in
13:44 54.9 °F 49.2 °F 30.32 in NE 2.3 mph 4.6 mph 81 % 0.00 in
13:49 55.1 °F 49.4 °F 30.32 in ENE 2.0 mph 5.0 mph 81 % 0.00 in
13:55 55.2 °F 48.8 °F 30.32 in NE 0.8 mph 2.3 mph 79 % 0.00 in
14:00 55.4 °F 49.3 °F 30.31 in ENE 2.9 mph 4.6 mph 80 % 0.00 in
14:05 55.9 °F 49.8 °F 30.31 in ENE 3.2 mph 6.9 mph 80 % 0.00 in
14:10 56.5 °F 50.4 °F 30.31 in ENE 3.8 mph 8.0 mph 80 % 0.00 in
14:15 57.1 °F 49.2 °F 30.31 in East 0.6 mph 3.5 mph 75 % 0.00 in
14:20 57.5 °F 47.4 °F 30.30 in SSE 3.2 mph 4.6 mph 69 % 0.00 in
14:25 57.7 °F 47.6 °F 30.31 in SE 2.0 mph 5.0 mph 69 % 0.00 in
14:30 58.1 °F 47.6 °F 30.30 in SE 1.2 mph 3.5 mph 68 % 0.00 in
14:35 58.4 °F 47.1 °F 30.30 in SE 2.0 mph 5.0 mph 66 % 0.00 in
14:40 59.1 °F 48.5 °F 30.30 in ESE 0.1 mph 1.2 mph 68 % 0.00 in
14:46 59.6 °F 47.8 °F 30.30 in SSW 1.2 mph 4.0 mph 65 % 0.00 in
14:51 59.7 °F 47.5 °F 30.30 in SW 1.4 mph 3.5 mph 64 % 0.00 in
14:56 59.6 °F 46.6 °F 30.30 in SSW 0.9 mph 5.8 mph 62 % 0.00 in
15:01 59.4 °F 46.4 °F 30.30 in SSE 3.9 mph 8.1 mph 62 % 0.00 in
15:06 59.0 °F 46.4 °F 30.30 in SW 3.7 mph 9.2 mph 63 % 0.00 in
15:11 58.9 °F 45.9 °F 30.30 in SSE 1.1 mph 8.1 mph 62 % 0.00 in
15:16 58.8 °F 46.6 °F 30.30 in SSW 1.9 mph 4.0 mph 64 % 0.00 in
15:21 58.8 °F 47.1 °F 30.30 in Calm   1.2 mph 65 % 0.00 in
15:26 58.7 °F 46.5 °F 30.30 in SE 1.2 mph 2.3 mph 64 % 0.00 in
15:31 58.5 °F 45.9 °F 30.30 in SE 2.7 mph 4.6 mph 63 % 0.00 in
15:37 58.3 °F 46.2 °F 30.29 in SSE 1.0 mph 4.0 mph 64 % 0.00 in
15:42 58.1 °F 46.4 °F 30.29 in SSW 0.7 mph 2.3 mph 65 % 0.00 in
15:47 58.1 °F 46.4 °F 30.29 in SSE 3.2 mph 8.1 mph 65 % 0.00 in
15:52 58.0 °F 45.9 °F 30.29 in SW 1.2 mph 4.6 mph 64 % 0.00 in
15:57 57.9 °F 46.2 °F 30.29 in SE 0.3 mph 2.3 mph 65 % 0.00 in
16:02 57.8 °F 46.1 °F 30.29 in SE 0.8 mph 2.3 mph 65 % 0.00 in
16:07 57.7 °F 46.0 °F 30.29 in SW 0.3 mph 1.2 mph 65 % 0.00 in
16:12 57.6 °F 45.9 °F 30.29 in SW 0.2 mph 1.2 mph 65 % 0.00 in
16:17 57.5 °F 45.8 °F 30.29 in SW 0.3 mph 3.5 mph 65 % 0.00 in
16:22 57.4 °F 45.7 °F 30.29 in SSE 4.0 mph 5.0 mph 65 % 0.00 in
16:27 57.3 °F 45.2 °F 30.28 in SE 3.4 mph 6.9 mph 64 % 0.00 in
16:33 57.2 °F 45.5 °F 30.28 in SE 2.1 mph 4.6 mph 65 % 0.00 in
16:38 57.1 °F 45.8 °F 30.28 in SSW 1.6 mph 3.5 mph 66 % 0.00 in
16:43 57.0 °F 44.9 °F 30.28 in SSE 0.1 mph 1.2 mph 64 % 0.00 in
16:48 56.9 °F 44.8 °F 30.28 in SW 0.5 mph 3.5 mph 64 % 0.00 in
16:53 56.8 °F 45.2 °F 30.28 in SSE 0.5 mph 1.2 mph 65 % 0.00 in
16:58 56.7 °F 45.1 °F 30.28 in SSW 0.8 mph 2.0 mph 65 % 0.00 in
17:03 56.6 °F 45.4 °F 30.28 in SSE 0.9 mph 2.3 mph 66 % 0.00 in
17:08 56.4 °F 44.8 °F 30.28 in SE 0.2 mph 1.2 mph 65 % 0.00 in
17:13 56.3 °F 45.5 °F 30.29 in Calm   1.2 mph 67 % 0.00 in
17:18 56.2 °F 45.0 °F 30.29 in Calm     66 % 0.00 in
17:23 56.1 °F 45.3 °F 30.29 in SE 0.3 mph 1.2 mph 67 % 0.00 in
17:28 56.0 °F 45.2 °F 30.30 in SE 0.4 mph 2.3 mph 67 % 0.00 in
17:34 55.8 °F 45.4 °F 30.30 in SE 0.2 mph 1.2 mph 68 % 0.00 in
17:39 55.7 °F 45.3 °F 30.30 in Calm     68 % 0.00 in
17:44 55.5 °F 45.5 °F 30.30 in Calm   1.2 mph 69 % 0.00 in
17:49 55.4 °F 45.4 °F 30.30 in Calm   1.2 mph 69 % 0.00 in
17:54 55.1 °F 45.5 °F 30.30 in Calm   1.2 mph 70 % 0.00 in
17:59 54.9 °F 45.3 °F 30.30 in Calm   1.2 mph 70 % 0.00 in
18:04 54.6 °F 45.0 °F 30.29 in Calm     70 % 0.00 in
18:09 54.4 °F 45.2 °F 30.29 in Calm     71 % 0.00 in
18:14 54.1 °F 45.3 °F 30.29 in Calm     72 % 0.00 in
18:20 53.8 °F 45.0 °F 30.30 in Calm     72 % 0.00 in
18:25 53.5 °F 45.1 °F 30.30 in Calm     73 % 0.00 in
18:30 53.3 °F 45.2 °F 30.30 in Calm     74 % 0.00 in
18:35 53.0 °F 45.3 °F 30.30 in Calm     75 % 0.00 in
18:40 52.7 °F 45.3 °F 30.29 in Calm     76 % 0.00 in
18:45 52.4 °F 45.1 °F 30.29 in SE 0.4 mph 2.3 mph 76 % 0.00 in
18:50 52.2 °F 45.2 °F 30.30 in Calm     77 % 0.00 in
18:55 52.0 °F 45.0 °F 30.29 in Calm     77 % 0.00 in
19:00 51.8 °F 44.8 °F 30.29 in Calm     77 % 0.00 in
19:05 51.6 °F 45.0 °F 30.28 in Calm   1.0 mph 78 % 0.00 in
19:10 51.4 °F 44.8 °F 30.29 in Calm   1.0 mph 78 % 0.00 in
19:15 51.2 °F 44.9 °F 30.29 in Calm   1.0 mph 79 % 0.00 in
19:20 51.1 °F 44.8 °F 30.28 in Calm     79 % 0.00 in
19:25 50.9 °F 44.6 °F 30.28 in Calm     79 % 0.00 in
19:30 50.8 °F 44.8 °F 30.28 in Calm     80 % 0.00 in
19:35 50.6 °F 44.7 °F 30.29 in Calm   2.0 mph 80 % 0.00 in
19:40 50.5 °F 44.6 °F 30.29 in Calm   1.0 mph 80 % 0.00 in
19:45 50.4 °F 44.8 °F 30.29 in Calm   1.0 mph 81 % 0.00 in
19:50 50.3 °F 45.0 °F 30.29 in Calm   1.0 mph 82 % 0.00 in
19:55 50.2 °F 44.9 °F 30.29 in Calm   1.0 mph 82 % 0.00 in
20:00 50.1 °F 45.1 °F 30.29 in Calm   1.2 mph 83 % 0.00 in
20:06 50.0 °F 45.0 °F 30.29 in Calm   1.2 mph 83 % 0.00 in
20:11 50.0 °F 45.4 °F 30.29 in Calm     84 % 0.00 in
20:16 49.9 °F 44.9 °F 30.28 in Calm     83 % 0.00 in
20:21 49.9 °F 45.3 °F 30.29 in Calm     84 % 0.00 in
20:26 49.8 °F 44.8 °F 30.28 in Calm     83 % 0.00 in
20:31 49.8 °F 45.2 °F 30.28 in Calm     84 % 0.00 in
20:36 49.7 °F 45.1 °F 30.28 in Calm     84 % 0.00 in
20:42 49.6 °F 45.0 °F 30.28 in Calm   1.0 mph 84 % 0.00 in
20:47 49.6 °F 45.0 °F 30.28 in Calm     84 % 0.00 in
20:52 49.5 °F 44.9 °F 30.28 in Calm   1.2 mph 84 % 0.00 in
20:57 49.5 °F 45.2 °F 30.28 in Calm     85 % 0.00 in
21:02 49.5 °F 45.5 °F 30.28 in Calm   1.2 mph 86 % 0.00 in
21:07 49.4 °F 45.4 °F 30.28 in Calm     86 % 0.00 in
21:12 49.4 °F 45.4 °F 30.29 in Calm     86 % 0.00 in
21:17 49.4 °F 45.7 °F 30.29 in Calm     87 % 0.00 in
21:22 49.4 °F 45.7 °F 30.29 in Calm     87 % 0.00 in
21:27 49.4 °F 45.7 °F 30.28 in Calm     87 % 0.00 in
21:33 49.3 °F 45.6 °F 30.29 in Calm     87 % 0.00 in
21:38 49.4 °F 45.7 °F 30.28 in Calm     87 % 0.00 in
21:43 49.3 °F 45.9 °F 30.29 in Calm     88 % 0.00 in
21:48 49.3 °F 45.9 °F 30.28 in Calm     88 % 0.00 in
21:53 49.4 °F 46.0 °F 30.28 in Calm     88 % 0.00 in
21:58 49.4 °F 46.0 °F 30.28 in SE 0.1 mph 1.2 mph 88 % 0.00 in
22:03 49.4 °F 46.3 °F 30.28 in Calm     89 % 0.00 in
22:08 49.4 °F 46.3 °F 30.28 in Calm     89 % 0.00 in
22:13 49.4 °F 46.3 °F 30.28 in Calm     89 % 0.00 in
22:19 49.5 °F 46.4 °F 30.28 in Calm     89 % 0.00 in
22:24 49.4 °F 46.3 °F 30.28 in Calm     89 % 0.00 in
22:29 49.5 °F 46.4 °F 30.29 in Calm     89 % 0.00 in
22:34 49.4 °F 46.3 °F 30.29 in Calm     89 % 0.00 in
22:39 49.4 °F 46.3 °F 30.28 in Calm     89 % 0.00 in
22:44 49.4 °F 46.3 °F 30.28 in Calm     89 % 0.00 in
22:49 49.4 °F 46.3 °F 30.29 in Calm     89 % 0.00 in
22:54 49.4 °F 46.6 °F 30.28 in Calm   1.2 mph 90 % 0.00 in
22:59 49.4 °F 46.6 °F 30.28 in Calm     90 % 0.00 in
23:04 49.4 °F 46.6 °F 30.28 in SE 0.1 mph 1.2 mph 90 % 0.00 in
23:10 49.4 °F 46.6 °F 30.28 in SE 0.1 mph 1.2 mph 90 % 0.00 in
23:15 49.4 °F 46.9 °F 30.28 in Calm   1.2 mph 91 % 0.00 in
23:20 49.5 °F 47.0 °F 30.28 in South 0.1 mph 1.2 mph 91 % 0.00 in
23:25 49.6 °F 47.1 °F 30.28 in Calm   1.2 mph 91 % 0.00 in
23:30 49.6 °F 47.1 °F 30.27 in SW 0.4 mph 3.5 mph 91 % 0.00 in
23:35 49.6 °F 47.1 °F 30.28 in SW 0.1 mph 3.5 mph 91 % 0.00 in
23:40 49.7 °F 47.5 °F 30.27 in WSW 0.8 mph 1.2 mph 92 % 0.00 in
23:45 49.7 °F 47.5 °F 30.28 in Calm     92 % 0.00 in
23:50 49.8 °F 47.6 °F 30.27 in WSW 0.1 mph   92 % 0.00 in
23:55 49.9 °F 47.7 °F 30.27 in SW 0.9 mph 3.5 mph 92 % 0.00 in
Crab Meadow Weather
Compliments of Weather Underground - 2.75 mb

Script developed by  Jim McMurry - jmcmurry@mwt.net Adapted for the template by  Wim van der Kuil - Leuven-Template.eu

Lightning: The chances of being hit by lightning is 1:28,500.